createdAt,value
2023-01-26T00:00:43.046Z,59.45
2023-01-26T00:01:43.018Z,59.45
2023-01-26T00:02:43.105Z,59.45
2023-01-26T00:03:43.076Z,59.45
2023-01-26T00:04:43.003Z,59.45
2023-01-26T00:05:42.974Z,59.55
2023-01-26T00:06:42.979Z,59.55
2023-01-26T00:07:42.958Z,59.55
2023-01-26T00:08:42.962Z,59.55
2023-01-26T00:09:42.958Z,59.55
2023-01-26T00:10:42.938Z,59.65
2023-01-26T00:11:42.922Z,59.65
2023-01-26T00:12:42.923Z,59.65
2023-01-26T00:13:42.895Z,59.65
2023-01-26T00:14:42.895Z,59.65
2023-01-26T00:15:42.951Z,59.65
2023-01-26T00:16:42.862Z,59.65
2023-01-26T00:17:42.863Z,59.65
2023-01-26T00:18:42.847Z,59.75
2023-01-26T00:19:42.851Z,59.75
2023-01-26T00:20:42.822Z,59.75
2023-01-26T00:21:42.878Z,59.75
2023-01-26T00:22:42.801Z,59.75
2023-01-26T00:23:42.807Z,59.85
2023-01-26T00:24:42.782Z,59.85
2023-01-26T00:25:42.785Z,59.85
2023-01-26T00:26:42.761Z,59.85
2023-01-26T00:27:42.817Z,59.85
2023-01-26T00:28:42.741Z,59.85
2023-01-26T00:29:42.748Z,59.75
2023-01-26T00:30:42.811Z,59.75
2023-01-26T00:31:42.784Z,59.75
2023-01-26T00:32:42.708Z,59.75
2023-01-26T00:33:42.740Z,59.75
2023-01-26T00:34:42.676Z,59.75
2023-01-26T00:35:42.674Z,59.75
2023-01-26T00:36:42.654Z,59.85
2023-01-26T00:37:42.673Z,59.75
2023-01-26T00:38:42.635Z,59.75
2023-01-26T00:39:42.668Z,59.75
2023-01-26T00:40:42.614Z,59.75
2023-01-26T00:41:42.626Z,59.75
2023-01-26T00:42:42.600Z,59.75
2023-01-26T00:43:42.605Z,59.75
2023-01-26T00:44:42.574Z,59.75
2023-01-26T00:45:42.699Z,59.75
2023-01-26T00:46:42.577Z,59.75
2023-01-26T00:47:42.556Z,59.75
2023-01-26T00:48:42.532Z,59.75
2023-01-26T00:49:42.543Z,59.75
2023-01-26T00:50:42.534Z,59.75
2023-01-26T00:51:42.521Z,59.75
2023-01-26T00:52:42.486Z,59.85
2023-01-26T00:53:42.495Z,59.75
2023-01-26T00:54:42.467Z,59.85
2023-01-26T00:55:42.469Z,59.85
2023-01-26T00:56:42.476Z,59.85
2023-01-26T00:57:42.445Z,59.85
2023-01-26T00:58:42.432Z,59.85
2023-01-26T00:59:42.441Z,59.95
2023-01-26T01:00:42.480Z,59.95
2023-01-26T01:01:42.479Z,59.95
2023-01-26T01:02:42.410Z,59.95
2023-01-26T01:03:42.400Z,59.95
2023-01-26T01:04:42.373Z,60.05
2023-01-26T01:05:42.369Z,60.05
2023-01-26T01:06:42.343Z,60.05
2023-01-26T01:07:42.368Z,60.05
2023-01-26T01:08:42.328Z,60.05
2023-01-26T01:09:42.332Z,60.05
2023-01-26T01:10:42.302Z,60.05
2023-01-26T01:11:42.327Z,60.05
2023-01-26T01:12:42.287Z,60.15
2023-01-26T01:13:42.309Z,60.15
2023-01-26T01:14:42.285Z,60.15
2023-01-26T01:15:42.271Z,60.15
2023-01-26T01:16:42.246Z,60.15
2023-01-26T01:17:42.258Z,60.25
2023-01-26T01:18:42.243Z,60.15
2023-01-26T01:19:42.242Z,60.25
2023-01-26T01:20:42.209Z,60.25
2023-01-26T01:21:42.203Z,60.25
2023-01-26T01:22:42.195Z,60.25
2023-01-26T01:23:42.191Z,60.25
2023-01-26T01:24:42.196Z,60.25
2023-01-26T01:25:42.169Z,60.25
2023-01-26T01:26:42.139Z,60.35
2023-01-26T01:27:42.153Z,60.35
2023-01-26T01:28:42.131Z,60.35
2023-01-26T01:29:42.186Z,60.35
2023-01-26T01:30:42.174Z,60.35
2023-01-26T01:31:42.132Z,60.35
2023-01-26T01:32:42.083Z,60.35
2023-01-26T01:33:42.094Z,60.35
2023-01-26T01:34:42.056Z,60.45
2023-01-26T01:35:42.084Z,60.45
2023-01-26T01:36:42.082Z,60.45
2023-01-26T01:37:42.040Z,60.55
2023-01-26T01:38:42.010Z,60.45
2023-01-26T01:39:42.014Z,60.55
2023-01-26T01:40:41.993Z,60.55
2023-01-26T01:41:41.992Z,60.55
2023-01-26T01:42:42.000Z,60.55
2023-01-26T01:43:41.990Z,60.55
2023-01-26T01:44:41.950Z,60.65
2023-01-26T01:45:41.961Z,60.65
2023-01-26T01:46:41.948Z,60.65
2023-01-26T01:47:41.974Z,60.65
2023-01-26T01:48:41.906Z,60.65
2023-01-26T01:49:41.935Z,60.65
2023-01-26T01:50:41.900Z,60.65
2023-01-26T01:51:41.903Z,60.65
2023-01-26T01:52:41.911Z,60.65
2023-01-26T01:53:41.922Z,60.65
2023-01-26T01:54:41.850Z,60.65
2023-01-26T01:55:41.857Z,60.65
2023-01-26T01:56:41.837Z,60.65
2023-01-26T01:57:41.840Z,60.65
2023-01-26T01:58:41.818Z,60.65
2023-01-26T01:59:41.838Z,60.65
2023-01-26T02:00:41.811Z,60.65
2023-01-26T02:01:41.799Z,60.65
2023-01-26T02:02:41.774Z,60.65
2023-01-26T02:03:41.779Z,60.65
2023-01-26T02:04:41.759Z,60.65
2023-01-26T02:05:41.783Z,60.65
2023-01-26T02:06:41.735Z,60.65
2023-01-26T02:07:41.735Z,60.65
2023-01-26T02:08:41.714Z,60.55
2023-01-26T02:09:41.738Z,60.55
2023-01-26T02:10:41.687Z,60.65
2023-01-26T02:11:41.716Z,60.55
2023-01-26T02:12:41.665Z,60.55
2023-01-26T02:13:41.674Z,60.65
2023-01-26T02:14:41.673Z,60.65
2023-01-26T02:15:41.648Z,60.65
2023-01-26T02:16:41.632Z,60.65
2023-01-26T02:17:41.641Z,60.65
2023-01-26T02:18:41.602Z,60.65
2023-01-26T02:19:41.607Z,60.55
2023-01-26T02:20:41.601Z,60.65
2023-01-26T02:21:41.585Z,60.65
2023-01-26T02:22:41.564Z,60.65
2023-01-26T02:23:41.596Z,60.65
2023-01-26T02:24:41.547Z,60.65
2023-01-26T02:25:41.555Z,60.65
2023-01-26T02:26:41.552Z,60.65
2023-01-26T02:27:41.527Z,60.75
2023-01-26T02:28:41.529Z,60.75
2023-01-26T02:29:41.506Z,60.65
2023-01-26T02:30:41.537Z,60.75
2023-01-26T02:31:41.570Z,60.75
2023-01-26T02:32:41.458Z,60.75
2023-01-26T02:33:41.481Z,60.75
2023-01-26T02:34:41.506Z,60.75
2023-01-26T02:35:41.448Z,60.75
2023-01-26T02:36:41.420Z,60.75
2023-01-26T02:37:41.420Z,60.75
2023-01-26T02:38:41.442Z,60.75
2023-01-26T02:39:41.401Z,60.85
2023-01-26T02:40:41.375Z,60.85
2023-01-26T02:41:41.383Z,60.85
2023-01-26T02:42:41.352Z,60.85
2023-01-26T02:43:41.366Z,60.85
2023-01-26T02:44:41.360Z,60.85
2023-01-26T02:45:41.361Z,60.85
2023-01-26T02:46:41.372Z,60.85
2023-01-26T02:47:41.319Z,60.85
2023-01-26T02:48:41.308Z,60.85
2023-01-26T02:49:41.297Z,60.85
2023-01-26T02:50:41.309Z,60.85
2023-01-26T02:51:41.288Z,60.85
2023-01-26T02:52:41.256Z,60.85
2023-01-26T02:53:41.263Z,60.96
2023-01-26T02:54:41.231Z,60.96
2023-01-26T02:55:41.267Z,60.85
2023-01-26T02:56:41.211Z,60.96
2023-01-26T02:57:41.226Z,60.96
2023-01-26T02:58:41.192Z,60.96
2023-01-26T02:59:41.192Z,60.96
2023-01-26T03:00:41.222Z,60.96
2023-01-26T03:01:41.214Z,60.96
2023-01-26T03:02:41.148Z,60.96
2023-01-26T03:03:41.170Z,60.85
2023-01-26T03:04:41.126Z,60.85
2023-01-26T03:05:41.137Z,60.85
2023-01-26T03:06:41.132Z,60.96
2023-01-26T03:07:41.118Z,60.96
2023-01-26T03:08:41.090Z,60.96
2023-01-26T03:09:41.117Z,60.96
2023-01-26T03:10:41.068Z,61.15
2023-01-26T03:11:41.073Z,61.15
2023-01-26T03:12:41.068Z,61.15
2023-01-26T03:13:41.047Z,61.35
2023-01-26T03:14:41.026Z,61.35
2023-01-26T03:15:41.034Z,61.15
2023-01-26T03:16:41.033Z,61.15
2023-01-26T03:17:41.029Z,61.05
2023-01-26T03:18:41.009Z,61.15
2023-01-26T03:19:41.018Z,61.66
2023-01-26T03:20:40.994Z,61.25
2023-01-26T03:21:40.977Z,61.15
2023-01-26T03:22:40.947Z,61.15
2023-01-26T03:23:40.986Z,61.15
2023-01-26T03:24:40.948Z,61.15
2023-01-26T03:25:40.936Z,61.15
2023-01-26T03:26:40.909Z,61.25
2023-01-26T03:27:40.931Z,62.86
2023-01-26T03:28:40.907Z,63.17
2023-01-26T03:29:40.911Z,63.17
2023-01-26T03:30:40.910Z,63.23
2023-01-26T03:31:41.017Z,63.23
2023-01-26T03:32:40.882Z,63.23
2023-01-26T03:33:40.842Z,62.43
2023-01-26T03:34:40.827Z,63.13
2023-01-26T03:35:40.833Z,63.23
2023-01-26T03:36:40.804Z,64.14
2023-01-26T03:37:40.833Z,64.34
2023-01-26T03:38:40.778Z,63.13
2023-01-26T03:39:40.805Z,62.23
2023-01-26T03:40:40.760Z,62.43
2023-01-26T03:41:40.750Z,62.23
2023-01-26T03:42:40.761Z,62.43
2023-01-26T03:43:40.756Z,62.53
2023-01-26T03:44:40.720Z,62.63
2023-01-26T03:45:40.718Z,62.53
2023-01-26T03:46:40.733Z,62.63
2023-01-26T03:47:40.723Z,62.63
2023-01-26T03:48:40.704Z,62.73
2023-01-26T03:49:40.695Z,62.83
2023-01-26T03:50:40.663Z,62.83
2023-01-26T03:51:40.659Z,62.73
2023-01-26T03:52:40.639Z,62.83
2023-01-26T03:53:40.639Z,62.83
2023-01-26T03:54:40.651Z,62.83
2023-01-26T03:55:40.633Z,62.73
2023-01-26T03:56:40.599Z,62.83
2023-01-26T03:57:40.605Z,62.73
2023-01-26T03:58:40.575Z,62.83
2023-01-26T03:59:40.534Z,62.83
2023-01-26T04:00:40.552Z,62.76
2023-01-26T04:01:40.568Z,62.86
2023-01-26T04:02:40.494Z,62.86
2023-01-26T04:03:40.487Z,62.86
2023-01-26T04:04:40.460Z,62.86
2023-01-26T04:05:40.464Z,62.86
2023-01-26T04:06:40.460Z,62.66
2023-01-26T04:07:40.453Z,62.96
2023-01-26T04:08:40.422Z,62.86
2023-01-26T04:09:40.437Z,62.66
2023-01-26T04:10:40.419Z,63.06
2023-01-26T04:11:40.423Z,62.76
2023-01-26T04:12:40.383Z,62.86
2023-01-26T04:13:40.383Z,62.83
2023-01-26T04:14:49.744Z,62.76
2023-01-26T04:15:40.366Z,62.73
2023-01-26T04:16:40.413Z,62.53
2023-01-26T04:17:40.340Z,62.16
2023-01-26T04:18:40.319Z,61.72
2023-01-26T04:19:40.325Z,61.63
2023-01-26T04:20:40.304Z,61.52
2023-01-26T04:21:40.324Z,61.52
2023-01-26T04:22:40.311Z,61.43
2023-01-26T04:23:40.276Z,61.43
2023-01-26T04:24:40.261Z,61.46
2023-01-26T04:25:40.270Z,61.43
2023-01-26T04:26:40.232Z,61.43
2023-01-26T04:27:40.264Z,61.46
2023-01-26T04:28:40.217Z,61.43
2023-01-26T04:29:40.217Z,61.55
2023-01-26T04:30:40.269Z,61.55
2023-01-26T04:31:40.191Z,61.43
2023-01-26T04:32:40.202Z,61.43
2023-01-26T04:33:40.165Z,61.46
2023-01-26T04:34:40.169Z,61.43
2023-01-26T04:35:40.136Z,61.46
2023-01-26T04:36:40.160Z,61.43
2023-01-26T04:37:40.146Z,61.46
2023-01-26T04:38:40.123Z,61.43
2023-01-26T04:39:40.100Z,61.46
2023-01-26T04:40:40.110Z,61.43
2023-01-26T04:41:42.271Z,61.43
2023-01-26T04:42:40.081Z,61.35
2023-01-26T04:43:40.075Z,61.33
2023-01-26T04:44:40.061Z,61.33
2023-01-26T04:45:40.077Z,61.52
2023-01-26T04:46:40.113Z,61.43
2023-01-26T04:47:40.068Z,61.33
2023-01-26T04:48:40.074Z,61.22
2023-01-26T04:49:40.050Z,61.13
2023-01-26T04:50:40.071Z,61.13
2023-01-26T04:51:40.027Z,61.13
2023-01-26T04:52:40.048Z,61.13
2023-01-26T04:53:40.009Z,61.05
2023-01-26T04:54:40.014Z,61.13
2023-01-26T04:55:39.977Z,61.05
2023-01-26T04:56:39.991Z,61.05
2023-01-26T04:57:39.961Z,61.05
2023-01-26T04:58:39.986Z,61.15
2023-01-26T04:59:39.946Z,61.15
2023-01-26T05:00:39.938Z,61.15
2023-01-26T05:01:39.927Z,61.15
2023-01-26T05:02:39.920Z,61.15
2023-01-26T05:03:39.906Z,61.25
2023-01-26T05:04:39.925Z,61.15
2023-01-26T05:05:39.907Z,61.05
2023-01-26T05:06:39.895Z,60.96
2023-01-26T05:07:39.849Z,61.05
2023-01-26T05:08:39.864Z,61.05
2023-01-26T05:09:39.829Z,61.15
2023-01-26T05:10:39.872Z,61.15
2023-01-26T05:11:39.821Z,61.15
2023-01-26T05:12:39.842Z,61.15
2023-01-26T05:13:39.800Z,60.25
2023-01-26T05:14:39.801Z,59.75
2023-01-26T05:15:39.787Z,60.05
2023-01-26T05:16:39.845Z,60.25
2023-01-26T05:17:39.811Z,60.35
2023-01-26T05:18:39.757Z,60.55
2023-01-26T05:19:39.732Z,60.65
2023-01-26T05:20:39.740Z,60.65
2023-01-26T05:21:39.709Z,60.75
2023-01-26T05:22:39.730Z,60.75
2023-01-26T05:23:39.692Z,60.75
2023-01-26T05:24:39.696Z,60.75
2023-01-26T05:25:39.669Z,60.75
2023-01-26T05:26:39.699Z,60.75
2023-01-26T05:27:39.648Z,60.75
2023-01-26T05:28:39.673Z,60.75
2023-01-26T05:29:39.628Z,60.75
2023-01-26T05:30:39.671Z,60.75
2023-01-26T05:31:39.668Z,60.75
2023-01-26T05:32:39.609Z,60.75
2023-01-26T05:33:39.616Z,60.75
2023-01-26T05:34:39.593Z,60.75
2023-01-26T05:35:39.567Z,60.75
2023-01-26T05:36:39.572Z,60.75
2023-01-26T05:37:39.559Z,60.75
2023-01-26T05:38:39.562Z,60.75
2023-01-26T05:39:39.568Z,60.75
2023-01-26T05:40:39.533Z,60.75
2023-01-26T05:41:39.505Z,60.75
2023-01-26T05:42:39.519Z,60.75
2023-01-26T05:43:39.493Z,60.75
2023-01-26T05:44:39.496Z,60.75
2023-01-26T05:45:39.540Z,60.75
2023-01-26T05:46:39.469Z,60.75
2023-01-26T05:47:39.449Z,60.75
2023-01-26T05:48:39.453Z,60.75
2023-01-26T05:49:39.425Z,60.75
2023-01-26T05:50:39.453Z,60.75
2023-01-26T05:51:39.423Z,60.75
2023-01-26T05:52:39.415Z,60.75
2023-01-26T05:53:39.385Z,60.75
2023-01-26T05:54:39.385Z,60.75
2023-01-26T05:55:39.370Z,60.75
2023-01-26T05:56:39.366Z,60.75
2023-01-26T05:57:39.362Z,60.75
2023-01-26T05:58:39.361Z,60.75
2023-01-26T05:59:39.331Z,60.75
2023-01-26T06:00:39.339Z,60.75
2023-01-26T06:01:39.307Z,60.65
2023-01-26T06:02:39.308Z,60.65
2023-01-26T06:03:39.307Z,60.65
2023-01-26T06:04:39.366Z,60.65
2023-01-26T06:05:39.265Z,60.65
2023-01-26T06:06:39.259Z,60.65
2023-01-26T06:07:39.241Z,60.65
2023-01-26T06:08:39.242Z,60.65
2023-01-26T06:09:39.239Z,60.65
2023-01-26T06:10:39.229Z,60.55
2023-01-26T06:11:39.198Z,60.65
2023-01-26T06:12:39.206Z,60.55
2023-01-26T06:13:39.178Z,60.55
2023-01-26T06:14:39.180Z,60.55
2023-01-26T06:15:39.188Z,60.55
2023-01-26T06:16:39.241Z,60.55
2023-01-26T06:17:39.149Z,60.55
2023-01-26T06:18:39.139Z,60.65
2023-01-26T06:19:39.117Z,60.55
2023-01-26T06:20:39.120Z,60.55
2023-01-26T06:21:39.119Z,60.55
2023-01-26T06:22:39.105Z,60.55
2023-01-26T06:23:39.071Z,60.55
2023-01-26T06:24:39.077Z,60.55
2023-01-26T06:25:39.051Z,60.55
2023-01-26T06:26:39.052Z,60.55
2023-01-26T06:27:39.056Z,60.45
2023-01-26T06:28:39.050Z,60.45
2023-01-26T06:29:39.009Z,60.55
2023-01-26T06:30:39.097Z,60.55
2023-01-26T06:31:39.118Z,60.45
2023-01-26T06:32:38.996Z,60.45
2023-01-26T06:33:39.014Z,60.45
2023-01-26T06:34:38.987Z,60.45
2023-01-26T06:35:38.955Z,60.45
2023-01-26T06:36:38.961Z,60.45
2023-01-26T06:37:38.947Z,60.45
2023-01-26T06:38:38.971Z,60.45
2023-01-26T06:39:38.919Z,60.45
2023-01-26T06:40:38.939Z,60.45
2023-01-26T06:41:38.891Z,60.45
2023-01-26T06:42:38.894Z,60.45
2023-01-26T06:43:38.896Z,60.45
2023-01-26T06:44:38.885Z,60.45
2023-01-26T06:45:38.846Z,60.45
2023-01-26T06:46:38.851Z,60.45
2023-01-26T06:47:38.828Z,60.45
2023-01-26T06:48:38.837Z,60.45
2023-01-26T06:49:38.827Z,60.45
2023-01-26T06:50:38.807Z,60.45
2023-01-26T06:51:38.789Z,60.45
2023-01-26T06:52:40.335Z,60.45
2023-01-26T06:53:38.786Z,60.45
2023-01-26T06:54:38.763Z,60.45
2023-01-26T06:55:38.758Z,60.45
2023-01-26T06:56:38.750Z,60.45
2023-01-26T06:57:38.722Z,60.45
2023-01-26T06:58:38.730Z,60.45
2023-01-26T06:59:38.720Z,60.45
2023-01-26T07:00:38.715Z,60.45
2023-01-26T07:01:38.806Z,60.45
2023-01-26T07:02:38.729Z,60.45
2023-01-26T07:03:38.665Z,60.45
2023-01-26T07:04:38.675Z,60.45
2023-01-26T07:05:38.665Z,60.45
2023-01-26T07:06:38.648Z,60.45
2023-01-26T07:07:38.616Z,60.45
2023-01-26T07:08:38.658Z,60.45
2023-01-26T07:09:38.601Z,60.45
2023-01-26T07:10:38.638Z,60.45
2023-01-26T07:11:38.570Z,60.45
2023-01-26T07:12:38.585Z,60.45
2023-01-26T07:13:38.565Z,60.45
2023-01-26T07:14:38.669Z,60.45
2023-01-26T07:15:38.547Z,60.45
2023-01-26T07:16:38.622Z,60.45
2023-01-26T07:17:38.526Z,60.45
2023-01-26T07:18:38.521Z,60.45
2023-01-26T07:19:38.496Z,60.45
2023-01-26T07:20:38.506Z,60.45
2023-01-26T07:21:38.471Z,60.45
2023-01-26T07:22:38.470Z,60.45
2023-01-26T07:23:38.473Z,60.45
2023-01-26T07:24:38.450Z,60.45
2023-01-26T07:25:38.427Z,60.45
2023-01-26T07:26:38.429Z,60.45
2023-01-26T07:27:38.403Z,60.45
2023-01-26T07:28:40.171Z,60.45
2023-01-26T07:29:38.398Z,60.45
2023-01-26T07:30:38.446Z,60.45
2023-01-26T07:31:38.418Z,60.45
2023-01-26T07:32:38.375Z,60.45
2023-01-26T07:33:38.345Z,60.45
2023-01-26T07:34:38.364Z,60.45
2023-01-26T07:35:38.321Z,60.35
2023-01-26T07:36:38.337Z,60.35
2023-01-26T07:37:38.296Z,60.35
2023-01-26T07:38:38.315Z,60.35
2023-01-26T07:39:38.282Z,60.35
2023-01-26T07:40:38.309Z,60.35
2023-01-26T07:41:38.283Z,60.35
2023-01-26T07:42:38.232Z,60.35
2023-01-26T07:43:38.257Z,60.35
2023-01-26T07:44:38.193Z,60.35
2023-01-26T07:45:38.160Z,60.35
2023-01-26T07:46:38.250Z,60.35
2023-01-26T07:47:38.144Z,60.35
2023-01-26T07:48:38.147Z,60.35
2023-01-26T07:49:38.119Z,60.35
2023-01-26T07:50:38.122Z,60.25
2023-01-26T07:51:38.139Z,60.35
2023-01-26T07:52:38.107Z,60.35
2023-01-26T07:53:38.078Z,60.35
2023-01-26T07:54:38.081Z,60.35
2023-01-26T07:55:38.055Z,60.35
2023-01-26T07:56:38.061Z,60.35
2023-01-26T07:57:38.057Z,60.35
2023-01-26T07:58:38.039Z,60.35
2023-01-26T07:59:38.019Z,60.35
2023-01-26T08:00:38.017Z,60.35
2023-01-26T08:01:38.021Z,60.35
2023-01-26T08:02:38.019Z,60.35
2023-01-26T08:03:38.008Z,60.35
2023-01-26T08:04:37.991Z,60.35
2023-01-26T08:05:37.990Z,60.35
2023-01-26T08:06:37.978Z,60.35
2023-01-26T08:07:37.973Z,60.35
2023-01-26T08:08:37.955Z,60.35
2023-01-26T08:09:37.973Z,60.35
2023-01-26T08:10:37.996Z,60.35
2023-01-26T08:11:37.942Z,60.35
2023-01-26T08:12:40.858Z,60.35
2023-01-26T08:13:37.901Z,60.35
2023-01-26T08:14:46.411Z,60.35
2023-01-26T08:15:37.932Z,60.35
2023-01-26T08:16:38.020Z,60.35
2023-01-26T08:17:37.886Z,60.35
2023-01-26T08:18:37.931Z,60.35
2023-01-26T08:19:37.887Z,60.35
2023-01-26T08:20:37.905Z,60.35
2023-01-26T08:21:37.855Z,60.35
2023-01-26T08:22:37.877Z,60.35
2023-01-26T08:23:37.839Z,60.35
2023-01-26T08:24:37.789Z,60.35
2023-01-26T08:25:37.771Z,60.35
2023-01-26T08:26:37.782Z,60.35
2023-01-26T08:27:37.805Z,60.35
2023-01-26T08:28:37.815Z,60.35
2023-01-26T08:29:37.781Z,60.35
2023-01-26T08:30:37.722Z,60.35
2023-01-26T08:31:37.727Z,60.35
2023-01-26T08:32:37.733Z,60.35
2023-01-26T08:33:37.679Z,60.35
2023-01-26T08:34:37.723Z,60.35
2023-01-26T08:35:37.655Z,60.35
2023-01-26T08:36:37.660Z,60.35
2023-01-26T08:37:37.670Z,60.35
2023-01-26T08:38:37.663Z,60.35
2023-01-26T08:39:37.668Z,60.35
2023-01-26T08:40:37.620Z,60.35
2023-01-26T08:41:37.606Z,60.25
2023-01-26T08:42:37.607Z,60.25
2023-01-26T08:43:37.645Z,60.25
2023-01-26T08:44:37.655Z,60.25
2023-01-26T08:45:37.669Z,60.25
2023-01-26T08:46:37.541Z,60.25
2023-01-26T08:47:37.560Z,60.25
2023-01-26T08:48:37.568Z,60.25
2023-01-26T08:49:37.566Z,60.25
2023-01-26T08:50:37.555Z,60.25
2023-01-26T08:51:37.551Z,60.25
2023-01-26T08:52:37.491Z,60.25
2023-01-26T08:53:37.508Z,60.25
2023-01-26T08:54:37.488Z,60.25
2023-01-26T08:55:37.473Z,60.25
2023-01-26T08:56:37.438Z,60.25
2023-01-26T08:57:37.469Z,60.25
2023-01-26T08:58:37.454Z,60.25
2023-01-26T08:59:37.476Z,60.25
2023-01-26T09:00:37.403Z,60.25
2023-01-26T09:01:37.409Z,60.25
2023-01-26T09:02:37.504Z,60.25
2023-01-26T09:03:37.440Z,60.35
2023-01-26T09:04:37.410Z,60.25
2023-01-26T09:05:37.442Z,60.35
2023-01-26T09:06:37.404Z,60.25
2023-01-26T09:07:37.408Z,60.25
2023-01-26T09:08:37.325Z,60.25
2023-01-26T09:09:37.339Z,60.25
2023-01-26T09:10:37.301Z,60.25
2023-01-26T09:11:37.384Z,60.25
2023-01-26T09:12:39.480Z,60.28
2023-01-26T09:13:37.376Z,60.25
2023-01-26T09:14:37.266Z,60.25
2023-01-26T09:15:37.281Z,60.35
2023-01-26T09:16:37.263Z,60.25
2023-01-26T09:17:37.284Z,60.25
2023-01-26T09:18:37.213Z,60.25
2023-01-26T09:19:37.248Z,60.25
2023-01-26T09:20:37.214Z,60.25
2023-01-26T09:21:37.226Z,60.25
2023-01-26T09:22:37.182Z,60.25
2023-01-26T09:23:37.179Z,60.28
2023-01-26T09:24:37.233Z,60.25
2023-01-26T09:25:37.179Z,60.35
2023-01-26T09:26:37.130Z,60.25
2023-01-26T09:27:37.152Z,60.25
2023-01-26T09:28:37.132Z,60.25
2023-01-26T09:29:37.152Z,60.28
2023-01-26T09:30:37.176Z,60.25
2023-01-26T09:31:37.339Z,60.25
2023-01-26T09:32:37.087Z,60.25
2023-01-26T09:33:37.095Z,60.25
2023-01-26T09:34:37.082Z,60.28
2023-01-26T09:35:37.073Z,60.25
2023-01-26T09:36:37.050Z,60.25
2023-01-26T09:37:37.032Z,60.25
2023-01-26T09:38:37.007Z,60.25
2023-01-26T09:39:37.039Z,60.28
2023-01-26T09:40:37.034Z,60.28
2023-01-26T09:41:36.991Z,60.28
2023-01-26T09:42:36.968Z,60.25
2023-01-26T09:43:36.973Z,60.25
2023-01-26T09:44:36.941Z,60.25
2023-01-26T09:45:36.949Z,60.25
2023-01-26T09:46:37.120Z,60.25
2023-01-26T09:47:36.934Z,60.25
2023-01-26T09:48:36.906Z,60.25
2023-01-26T09:49:36.918Z,60.25
2023-01-26T09:50:36.886Z,60.28
2023-01-26T09:51:36.891Z,60.25
2023-01-26T09:52:36.905Z,60.25
2023-01-26T09:53:36.913Z,60.25
2023-01-26T09:54:36.866Z,60.25
2023-01-26T09:55:36.842Z,60.25
2023-01-26T09:56:36.819Z,60.25
2023-01-26T09:57:36.859Z,60.28
2023-01-26T09:58:36.795Z,60.25
2023-01-26T09:59:36.813Z,60.25
2023-01-26T10:00:36.784Z,60.25
2023-01-26T10:01:36.900Z,60.28
2023-01-26T10:02:36.784Z,60.28
2023-01-26T10:03:36.770Z,60.25
2023-01-26T10:04:36.971Z,60.28
2023-01-26T10:05:36.746Z,60.28
2023-01-26T10:06:36.718Z,60.25
2023-01-26T10:07:36.761Z,60.25
2023-01-26T10:08:36.695Z,60.25
2023-01-26T10:09:36.715Z,60.25
2023-01-26T10:10:36.675Z,60.28
2023-01-26T10:11:36.684Z,60.28
2023-01-26T10:12:36.657Z,60.25
2023-01-26T10:13:36.690Z,60.25
2023-01-26T10:14:36.651Z,60.25
2023-01-26T10:15:36.675Z,60.25
2023-01-26T10:16:36.614Z,60.25
2023-01-26T10:17:36.656Z,60.25
2023-01-26T10:18:36.603Z,60.25
2023-01-26T10:19:36.637Z,60.25
2023-01-26T10:20:36.595Z,60.25
2023-01-26T10:21:36.614Z,60.25
2023-01-26T10:22:36.555Z,60.25
2023-01-26T10:23:36.604Z,60.28
2023-01-26T10:24:36.555Z,60.25
2023-01-26T10:25:36.574Z,60.25
2023-01-26T10:26:36.536Z,60.25
2023-01-26T10:27:36.519Z,60.25
2023-01-26T10:28:36.546Z,60.25
2023-01-26T10:29:36.498Z,60.25
2023-01-26T10:30:36.649Z,60.25
2023-01-26T10:31:36.594Z,60.28
2023-01-26T10:32:36.462Z,60.25
2023-01-26T10:33:36.501Z,60.28
2023-01-26T10:34:36.436Z,60.25
2023-01-26T10:35:36.437Z,60.25
2023-01-26T10:36:36.414Z,60.25
2023-01-26T10:37:36.457Z,60.25
2023-01-26T10:38:36.435Z,60.25
2023-01-26T10:39:36.389Z,60.25
2023-01-26T10:40:36.383Z,60.25
2023-01-26T10:41:36.388Z,60.28
2023-01-26T10:42:36.364Z,60.25
2023-01-26T10:43:36.365Z,60.25
2023-01-26T10:44:36.359Z,60.25
2023-01-26T10:45:36.331Z,60.28
2023-01-26T10:46:36.336Z,60.25
2023-01-26T10:47:36.374Z,60.28
2023-01-26T10:48:36.322Z,60.28
2023-01-26T10:49:36.317Z,60.25
2023-01-26T10:50:36.292Z,60.28
2023-01-26T10:51:36.315Z,60.28
2023-01-26T10:52:36.249Z,60.38
2023-01-26T10:53:36.274Z,60.35
2023-01-26T10:54:36.250Z,60.38
2023-01-26T10:55:36.247Z,60.35
2023-01-26T10:56:36.213Z,60.25
2023-01-26T10:57:36.211Z,60.38
2023-01-26T10:58:36.182Z,60.38
2023-01-26T10:59:36.217Z,60.38
2023-01-26T11:00:36.197Z,60.35
2023-01-26T11:01:36.357Z,60.28
2023-01-26T11:02:36.212Z,60.28
2023-01-26T11:03:36.218Z,60.38
2023-01-26T11:04:36.133Z,60.38
2023-01-26T11:05:36.154Z,60.38
2023-01-26T11:06:36.104Z,60.28
2023-01-26T11:07:36.138Z,60.25
2023-01-26T11:08:36.078Z,60.38
2023-01-26T11:09:36.093Z,60.28
2023-01-26T11:10:36.071Z,60.38
2023-01-26T11:11:36.097Z,60.28
2023-01-26T11:12:36.040Z,60.28
2023-01-26T11:13:36.054Z,60.28
2023-01-26T11:14:36.020Z,60.25
2023-01-26T11:15:36.025Z,60.28
2023-01-26T11:16:36.076Z,60.25
2023-01-26T11:17:36.010Z,60.28
2023-01-26T11:18:35.979Z,60.28
2023-01-26T11:19:36.020Z,60.28
2023-01-26T11:20:35.965Z,60.28
2023-01-26T11:21:35.987Z,60.28
2023-01-26T11:22:35.932Z,60.25
2023-01-26T11:23:35.953Z,60.28
2023-01-26T11:24:35.913Z,60.28
2023-01-26T11:25:35.940Z,60.28
2023-01-26T11:26:35.900Z,60.28
2023-01-26T11:27:35.901Z,60.28
2023-01-26T11:28:35.879Z,60.28
2023-01-26T11:29:35.882Z,60.28
2023-01-26T11:30:35.890Z,60.28
2023-01-26T11:31:37.539Z,60.28
2023-01-26T11:32:35.850Z,60.28
2023-01-26T11:33:35.839Z,60.28
2023-01-26T11:34:35.828Z,60.25
2023-01-26T11:35:35.829Z,60.28
2023-01-26T11:36:35.862Z,60.28
2023-01-26T11:37:35.790Z,60.28
2023-01-26T11:38:35.788Z,60.28
2023-01-26T11:39:35.772Z,60.28
2023-01-26T11:40:35.748Z,60.28
2023-01-26T11:41:35.781Z,60.25
2023-01-26T11:42:35.721Z,60.28
2023-01-26T11:43:35.770Z,60.28
2023-01-26T11:44:35.712Z,60.28
2023-01-26T11:45:35.721Z,60.28
2023-01-26T11:46:35.722Z,60.28
2023-01-26T11:47:35.701Z,60.28
2023-01-26T11:48:35.672Z,60.28
2023-01-26T11:49:35.690Z,60.28
2023-01-26T11:50:35.643Z,60.25
2023-01-26T11:51:35.653Z,60.28
2023-01-26T11:52:35.669Z,60.25
2023-01-26T11:53:35.644Z,60.28
2023-01-26T11:54:35.612Z,60.28
2023-01-26T11:55:35.631Z,60.28
2023-01-26T11:56:35.591Z,60.28
2023-01-26T11:57:35.623Z,60.28
2023-01-26T11:58:35.603Z,60.28
2023-01-26T11:59:36.919Z,60.28
2023-01-26T12:00:35.538Z,60.28
2023-01-26T12:01:35.547Z,60.28
2023-01-26T12:02:35.588Z,60.28
2023-01-26T12:03:35.637Z,60.28
2023-01-26T12:04:35.531Z,60.28
2023-01-26T12:05:35.520Z,60.28
2023-01-26T12:06:35.496Z,60.28
2023-01-26T12:07:35.481Z,60.28
2023-01-26T12:08:35.571Z,60.28
2023-01-26T12:09:35.508Z,60.25
2023-01-26T12:10:35.445Z,60.28
2023-01-26T12:11:35.440Z,60.28
2023-01-26T12:12:37.390Z,60.28
2023-01-26T12:13:35.423Z,60.28
2023-01-26T12:14:35.406Z,60.25
2023-01-26T12:15:35.462Z,60.28
2023-01-26T12:16:35.441Z,60.28
2023-01-26T12:17:35.383Z,60.28
2023-01-26T12:18:50.730Z,60.28
2023-01-26T12:19:35.376Z,60.25
2023-01-26T12:20:35.347Z,60.28
2023-01-26T12:21:35.356Z,60.25
2023-01-26T12:22:35.325Z,60.25
2023-01-26T12:23:35.320Z,60.28
2023-01-26T12:25:04.786Z,60.25
2023-01-26T12:25:35.882Z,60.28
2023-01-26T12:26:35.296Z,60.28
2023-01-26T12:27:35.304Z,60.28
2023-01-26T12:28:35.256Z,60.28
2023-01-26T12:29:35.255Z,60.28
2023-01-26T12:30:35.289Z,60.28
2023-01-26T12:31:35.403Z,60.28
2023-01-26T12:32:35.210Z,60.28
2023-01-26T12:33:35.215Z,60.28
2023-01-26T12:34:35.185Z,60.28
2023-01-26T12:35:35.193Z,60.28
2023-01-26T12:36:35.291Z,60.28
2023-01-26T12:37:35.191Z,60.28
2023-01-26T12:38:35.154Z,60.28
2023-01-26T12:39:35.145Z,60.28
2023-01-26T12:40:35.128Z,60.28
2023-01-26T12:41:35.131Z,60.38
2023-01-26T12:42:35.109Z,60.38
2023-01-26T12:43:35.129Z,60.38
2023-01-26T12:44:35.089Z,60.28
2023-01-26T12:45:35.108Z,60.38
2023-01-26T12:46:35.173Z,60.38
2023-01-26T12:47:35.097Z,60.35
2023-01-26T12:48:35.062Z,60.38
2023-01-26T12:49:35.116Z,60.38
2023-01-26T12:50:35.043Z,60.38
2023-01-26T12:51:35.048Z,60.38
2023-01-26T12:52:35.004Z,60.35